Time;durP1;ratioP1;P1;durP2;ratioP2;P2;SDS_P1;SDS_P2;PMS_P1;PMS_P2;Temp;Humidity;BMP_temperature;BMP_pressure;BME280_temperature;BME280_humidity;BME280_pressure;Samples;Min_cycle;Max_cycle;Signal;HPM_P1;HPM_P2
2022/03/05 00:00:31;;;;;;;;;;;12.40;50.80;;;;;;5075730;28;19930;-70
2022/03/05 00:02:58;;;;;;;;;;;12.40;50.80;;;;;;5090722;28;19928;-71
2022/03/05 00:05:24;;;;;;;;;;;12.40;50.80;;;;;;5092142;28;19982;-70
2022/03/05 00:07:51;;;;;;;;;;;12.40;50.70;;;;;;5090764;28;20024;-69
2022/03/05 00:10:19;;;;;;;;;;;12.40;50.80;;;;;;5090305;28;19934;-70
2022/03/05 00:12:47;;;;;;;;;;;12.80;51.00;;;;;;5070975;28;19929;-70
2022/03/05 00:15:13;;;;;;;;;;;12.40;50.70;;;;;;5072189;28;19925;-68
2022/03/05 00:17:40;;;;;;;;;;;12.40;50.70;;;;;;5070617;28;19925;-70
2022/03/05 00:20:07;;;;;;;;;;;12.40;50.80;;;;;;5083104;28;19924;-70
2022/03/05 00:22:33;;;;;;;;;;;12.40;50.70;;;;;;5081792;28;20415;-71
2022/03/05 00:25:00;;;;;;;;;;;12.40;50.70;;;;;;5082134;28;20373;-70
2022/03/05 00:27:26;;;;;;;;;;;12.90;51.00;;;;;;5073554;28;19924;-70
2022/03/05 00:29:54;;;;;;;;;;;12.80;50.90;;;;;;5089022;28;19946;-70
2022/03/05 00:32:21;;;;;;;;;;;12.40;50.70;;;;;;5095840;28;19939;-71
2022/03/05 00:34:48;;;;;;;;;;;12.40;50.70;;;;;;5090473;28;20521;-70
2022/03/05 00:37:14;;;;;;;;;;;12.40;50.60;;;;;;5076202;28;19925;-70
2022/03/05 00:39:41;;;;;;;;;;;13.20;51.10;;;;;;5075271;28;19946;-71
2022/03/05 00:42:07;;;;;;;;;;;12.50;50.70;;;;;;5075269;28;19924;-71
2022/03/05 00:44:34;;;;;;;;;;;12.50;50.70;;;;;;5075080;28;19967;-69
2022/03/05 00:47:02;;;;;;;;;;;12.50;50.70;;;;;;5074970;28;19930;-71
2022/03/05 00:49:29;;;;;;;;;;;12.50;50.60;;;;;;5074696;28;19928;-70
2022/03/05 00:51:55;;;;;;;;;;;12.50;50.60;;;;;;5074951;28;20389;-70
2022/03/05 00:54:22;;;;;;;;;;;12.50;50.60;;;;;;5084257;28;20292;-70
2022/03/05 00:56:48;;;;;;;;;;;12.50;50.60;;;;;;5074174;28;19928;-69
2022/03/05 00:59:15;;;;;;;;;;;13.10;50.90;;;;;;5074618;28;19924;-70
2022/03/05 01:01:41;;;;;;;;;;;13.40;51.10;;;;;;5074970;28;19947;-70
2022/03/05 01:04:10;;;;;;;;;;;12.50;50.50;;;;;;5074902;28;19929;-70
2022/03/05 01:06:36;;;;;;;;;;;12.50;50.50;;;;;;5074661;28;19924;-70
2022/03/05 01:09:03;;;;;;;;;;;12.90;50.70;;;;;;5088708;28;19932;-70
2022/03/05 01:11:30;;;;;;;;;;;13.20;50.90;;;;;;5074686;28;20281;-71
2022/03/05 01:13:57;;;;;;;;;;;12.60;50.50;;;;;;5074948;28;19950;-68
2022/03/05 01:16:23;;;;;;;;;;;12.60;50.50;;;;;;5079905;28;19924;-70
2022/03/05 01:18:50;;;;;;;;;;;12.60;50.50;;;;;;5093869;28;19924;-70
2022/03/05 01:21:18;;;;;;;;;;;13.40;50.90;;;;;;5091053;28;20370;-70
2022/03/05 01:23:44;;;;;;;;;;;13.20;50.80;;;;;;5093513;28;20691;-70
2022/03/05 01:26:11;;;;;;;;;;;13.30;51.40;;;;;;5094579;28;19932;-70
2022/03/05 01:28:37;;;;;;;;;;;12.60;50.40;;;;;;5083974;28;19924;-69
2022/03/05 01:31:04;;;;;;;;;;;12.80;50.50;;;;;;5090642;28;19950;-70
2022/03/05 01:33:31;;;;;;;;;;;12.60;50.40;;;;;;5094901;28;19924;-71
2022/03/05 01:35:57;;;;;;;;;;;13.60;51.00;;;;;;5084707;28;19946;-69
2022/03/05 01:38:25;;;;;;;;;;;12.60;50.40;;;;;;5080961;28;19931;-70
2022/03/05 01:40:52;;;;;;;;;;;13.50;50.90;;;;;;5073231;28;20019;-70
2022/03/05 01:43:19;;;;;;;;;;;12.60;50.40;;;;;;5085110;28;19982;-70
2022/03/05 01:45:45;;;;;;;;;;;12.60;50.40;;;;;;5074827;28;20300;-69
2022/03/05 01:48:12;;;;;;;;;;;12.70;50.40;;;;;;5084303;28;19928;-70
2022/03/05 01:50:39;;;;;;;;;;;12.60;50.40;;;;;;5081147;28;20015;-71
2022/03/05 01:53:05;;;;;;;;;;;12.60;50.40;;;;;;5084301;28;19924;-71
2022/03/05 01:55:33;;;;;;;;;;;12.70;50.40;;;;;;5092413;28;19924;-69
2022/03/05 01:58:00;;;;;;;;;;;13.20;50.60;;;;;;5092986;28;19924;-71
2022/03/05 02:00:26;;;;;;;;;;;12.60;50.30;;;;;;5084980;28;20381;-70
2022/03/05 02:02:53;;;;;;;;;;;12.60;50.30;;;;;;5092778;28;20369;-71
2022/03/05 02:05:20;;;;;;;;;;;12.60;50.30;;;;;;5076740;28;19924;-70
2022/03/05 02:07:47;;;;;;;;;;;12.70;50.40;;;;;;5073636;28;19977;-70
2022/03/05 02:10:13;;;;;;;;;;;12.70;50.30;;;;;;5073705;28;19924;-71
2022/03/05 02:12:41;;;;;;;;;;;12.80;50.40;;;;;;5079835;28;19924;-71
2022/03/05 02:15:08;;;;;;;;;;;12.60;50.30;;;;;;5092609;28;19930;-70
2022/03/05 02:17:35;;;;;;;;;;;12.70;50.90;;;;;;5092070;28;19924;-70
2022/03/05 02:20:01;;;;;;;;;;;12.90;50.50;;;;;;5072626;28;19928;-71
2022/03/05 02:22:29;;;;;;;;;;;12.60;50.30;;;;;;5073382;28;19925;-71
2022/03/05 02:24:58;;;;;;;;;;;12.60;50.30;;;;;;5088808;28;19924;-70
2022/03/05 02:27:25;;;;;;;;;;;13.00;50.50;;;;;;5088683;28;19925;-70
2022/03/05 02:29:51;;;;;;;;;;;12.60;50.20;;;;;;5086783;28;19931;-71
2022/03/05 02:32:18;;;;;;;;;;;12.60;50.30;;;;;;5087211;28;19967;-71
2022/03/05 02:34:44;;;;;;;;;;;12.70;50.30;;;;;;5073136;28;19931;-70
2022/03/05 02:37:11;;;;;;;;;;;12.70;50.30;;;;;;5084996;28;19935;-70
2022/03/05 02:39:39;;;;;;;;;;;13.60;50.80;;;;;;5072633;28;20309;-71
2022/03/05 02:42:06;;;;;;;;;;;12.60;50.20;;;;;;5073154;28;19946;-71
2022/03/05 02:44:33;;;;;;;;;;;12.60;50.20;;;;;;5073166;28;20403;-70
2022/03/05 02:46:59;;;;;;;;;;;12.80;50.30;;;;;;5072440;28;19929;-70
2022/03/05 02:49:26;;;;;;;;;;;12.60;50.20;;;;;;5078780;28;20377;-71
2022/03/05 02:51:52;;;;;;;;;;;13.40;50.70;;;;;;5072331;28;19989;-70
2022/03/05 02:54:19;;;;;;;;;;;12.60;50.20;;;;;;5072484;28;19924;-71
2022/03/05 02:56:47;;;;;;;;;;;13.00;50.40;;;;;;5072626;28;19946;-70
2022/03/05 02:59:14;;;;;;;;;;;12.70;50.20;;;;;;5072449;28;19925;-70
2022/03/05 03:01:40;;;;;;;;;;;12.70;50.20;;;;;;5072451;28;19924;-71
2022/03/05 03:04:07;;;;;;;;;;;12.60;50.20;;;;;;5072670;28;19931;-71
2022/03/05 03:06:33;;;;;;;;;;;13.50;50.70;;;;;;5072400;28;19924;-71
2022/03/05 03:09:00;;;;;;;;;;;12.60;50.10;;;;;;5072331;28;19929;-70
2022/03/05 03:11:26;;;;;;;;;;;12.70;50.20;;;;;;5071545;28;19978;-70
2022/03/05 03:13:54;;;;;;;;;;;13.40;50.60;;;;;;5072746;28;19932;-70
2022/03/05 03:16:21;;;;;;;;;;;12.60;50.10;;;;;;5072400;28;19928;-70
2022/03/05 03:18:47;;;;;;;;;;;13.20;50.50;;;;;;5071639;28;19925;-71
2022/03/05 03:21:14;;;;;;;;;;;13.60;50.70;;;;;;5085941;28;19924;-69
2022/03/05 03:23:41;;;;;;;;;;;12.60;50.10;;;;;;5091268;28;19974;-71
2022/03/05 03:26:07;;;;;;;;;;;12.90;50.30;;;;;;5091284;28;19924;-70
2022/03/05 03:28:34;;;;;;;;;;;12.80;50.20;;;;;;5080871;28;19930;-70
2022/03/05 03:31:02;;;;;;;;;;;12.70;50.20;;;;;;5091049;28;19960;-70
2022/03/05 03:33:28;;;;;;;;;;;12.60;50.10;;;;;;5078821;28;20415;-70
2022/03/05 03:35:55;;;;;;;;;;;13.40;50.50;;;;;;5083519;28;20304;-70
2022/03/05 03:38:22;;;;;;;;;;;12.60;50.10;;;;;;5071233;28;19978;-71
2022/03/05 03:40:48;;;;;;;;;;;13.40;50.50;;;;;;5072842;28;19925;-71
2022/03/05 03:43:15;;;;;;;;;;;13.30;50.50;;;;;;5083302;28;19924;-70
2022/03/05 03:45:41;;;;;;;;;;;13.40;50.50;;;;;;5091190;28;19930;-70
2022/03/05 03:48:11;;;;;;;;;;;13.10;50.40;;;;;;5078863;28;19925;-70
2022/03/05 03:50:38;;;;;;;;;;;12.80;50.20;;;;;;5077414;28;19924;-71
2022/03/05 03:53:05;;;;;;;;;;;13.50;50.50;;;;;;5092218;28;20007;-70
2022/03/05 03:55:31;;;;;;;;;;;12.70;50.10;;;;;;5090992;28;19930;-71
2022/03/05 03:57:58;;;;;;;;;;;12.60;50.00;;;;;;5081835;28;19931;-70
2022/03/05 04:00:24;;;;;;;;;;;12.60;50.00;;;;;;5079979;28;20731;-70
2022/03/05 04:02:51;;;;;;;;;;;13.40;50.50;;;;;;5081699;28;19924;-68
2022/03/05 04:05:19;;;;;;;;;;;12.60;50.00;;;;;;5085359;28;20291;-70
2022/03/05 04:10:30;;;;;;;;;;;13.40;50.50;;;;;;5096419;28;19928;-70
2022/03/05 04:12:56;;;;;;;;;;;12.60;50.00;;;;;;5087223;28;19925;-71
2022/03/05 04:15:24;;;;;;;;;;;12.60;50.00;;;;;;5081797;28;19947;-67
2022/03/05 04:17:51;;;;;;;;;;;12.60;50.00;;;;;;5092499;28;19928;-71
2022/03/05 04:20:19;;;;;;;;;;;12.60;50.00;;;;;;5094856;28;19969;-70
2022/03/05 04:22:45;;;;;;;;;;;12.60;50.00;;;;;;5095879;28;19977;-69
2022/03/05 04:25:12;;;;;;;;;;;12.60;50.00;;;;;;5078592;28;19932;-70
2022/03/05 04:27:39;;;;;;;;;;;12.60;50.00;;;;;;5078538;28;19931;-71
2022/03/05 04:30:06;;;;;;;;;;;12.60;50.00;;;;;;5084224;28;20019;-71
2022/03/05 04:32:32;;;;;;;;;;;12.60;50.00;;;;;;5079755;28;19978;-70
2022/03/05 04:34:59;;;;;;;;;;;12.60;50.00;;;;;;5074503;28;19960;-70
2022/03/05 04:37:27;;;;;;;;;;;12.60;50.00;;;;;;5090132;28;19928;-71
2022/03/05 04:39:53;;;;;;;;;;;12.60;50.00;;;;;;5095398;28;19924;-71
2022/03/05 04:42:20;;;;;;;;;;;12.60;50.00;;;;;;5091827;28;20007;-70
2022/03/05 04:44:46;;;;;;;;;;;12.60;50.00;;;;;;5075946;28;20007;-70
2022/03/05 04:47:13;;;;;;;;;;;12.60;50.00;;;;;;5080958;28;19924;-71
2022/03/05 04:49:40;;;;;;;;;;;12.60;50.00;;;;;;5095511;28;20007;-71
2022/03/05 04:52:06;;;;;;;;;;;12.60;50.00;;;;;;5080640;28;20431;-69
2022/03/05 04:54:34;;;;;;;;;;;12.60;49.90;;;;;;5075319;28;19963;-71
2022/03/05 04:57:01;;;;;;;;;;;12.60;49.90;;;;;;5076109;28;20427;-71
2022/03/05 04:59:28;;;;;;;;;;;13.20;50.30;;;;;;5074206;28;19947;-70
2022/03/05 05:01:56;;;;;;;;;;;12.60;50.00;;;;;;5075266;28;19950;-71
2022/03/05 05:04:22;;;;;;;;;;;12.60;50.00;;;;;;5075105;28;19928;-70
2022/03/05 05:06:49;;;;;;;;;;;12.60;49.90;;;;;;5074892;28;20274;-71
2022/03/05 05:09:16;;;;;;;;;;;13.30;50.30;;;;;;5093652;28;20301;-70
2022/03/05 05:11:44;;;;;;;;;;;12.70;49.90;;;;;;5078622;28;19928;-69
2022/03/05 05:14:11;;;;;;;;;;;13.10;50.20;;;;;;5092999;28;19935;-69
2022/03/05 05:16:37;;;;;;;;;;;13.50;50.40;;;;;;5091674;28;19932;-69
2022/03/05 05:21:48;;;;;;;;;;;12.50;49.80;;;;;;5073502;28;19921;-69
2022/03/05 05:24:15;;;;;;;;;;;12.60;49.90;;;;;;5074714;28;20381;-69
2022/03/05 05:26:42;;;;;;;;;;;13.10;50.10;;;;;;5075198;28;19928;-69
2022/03/05 05:29:09;;;;;;;;;;;12.80;50.00;;;;;;5073087;28;19932;-69
2022/03/05 05:31:36;;;;;;;;;;;12.60;49.80;;;;;;5072800;28;19931;-69
2022/03/05 05:34:03;;;;;;;;;;;12.60;49.90;;;;;;5072905;28;20286;-69
2022/03/05 05:36:30;;;;;;;;;;;13.40;50.30;;;;;;5074062;28;19944;-68
2022/03/05 05:38:56;;;;;;;;;;;13.50;50.40;;;;;;5074236;28;19939;-69
2022/03/05 05:41:23;;;;;;;;;;;12.60;49.80;;;;;;5079413;28;19944;-69
2022/03/05 05:43:50;;;;;;;;;;;12.50;49.80;;;;;;5076681;28;19924;-68
2022/03/05 05:46:17;;;;;;;;;;;12.60;49.80;;;;;;5074057;28;19925;-69
2022/03/05 05:48:44;;;;;;;;;;;12.60;49.80;;;;;;5089331;28;19930;-69
2022/03/05 05:51:11;;;;;;;;;;;12.60;49.80;;;;;;5080489;28;19924;-69
2022/03/05 05:53:37;;;;;;;;;;;12.60;49.80;;;;;;5077438;28;19923;-69
2022/03/05 05:56:04;;;;;;;;;;;12.60;49.80;;;;;;5064761;28;19931;-70
2022/03/05 05:58:31;;;;;;;;;;;12.60;49.80;;;;;;5075792;28;20304;-69
2022/03/05 06:00:57;;;;;;;;;;;12.60;49.80;;;;;;5093735;28;19946;-69
2022/03/05 06:03:25;;;;;;;;;;;12.70;49.80;;;;;;5094161;28;20018;-69
2022/03/05 06:05:52;;;;;;;;;;;13.30;50.20;;;;;;5078764;28;19928;-70
2022/03/05 06:08:18;;;;;;;;;;;12.60;49.80;;;;;;5085174;28;19967;-69
2022/03/05 06:10:45;;;;;;;;;;;13.30;50.20;;;;;;5077484;28;19925;-70
2022/03/05 06:13:12;;;;;;;;;;;12.50;49.70;;;;;;5083095;28;19931;-69
2022/03/05 06:15:38;;;;;;;;;;;13.50;50.30;;;;;;5092696;28;19934;-69
2022/03/05 06:18:05;;;;;;;;;;;12.50;49.70;;;;;;5074414;28;19925;-68
2022/03/05 06:20:33;;;;;;;;;;;12.60;49.80;;;;;;5072480;28;19924;-69
2022/03/05 06:22:59;;;;;;;;;;;12.50;49.70;;;;;;5084648;28;19930;-69
2022/03/05 06:25:26;;;;;;;;;;;12.60;49.70;;;;;;5071639;28;19924;-69
2022/03/05 06:27:52;;;;;;;;;;;12.60;49.70;;;;;;5080169;28;19932;-69
2022/03/05 06:30:19;;;;;;;;;;;12.60;49.70;;;;;;5085823;28;20007;-68
2022/03/05 06:32:45;;;;;;;;;;;12.50;49.70;;;;;;5079722;28;19931;-69
2022/03/05 06:35:12;;;;;;;;;;;12.60;49.80;;;;;;5093320;28;19931;-69
2022/03/05 06:37:40;;;;;;;;;;;12.60;49.70;;;;;;5088518;28;19925;-69
2022/03/05 06:40:07;;;;;;;;;;;12.60;49.70;;;;;;5073177;28;19924;-69
2022/03/05 06:42:34;;;;;;;;;;;12.50;49.60;;;;;;5078616;28;20079;-69
2022/03/05 06:45:01;;;;;;;;;;;12.50;49.70;;;;;;5086379;28;20305;-68
2022/03/05 06:47:28;;;;;;;;;;;12.50;49.60;;;;;;5077179;28;19946;-69
2022/03/05 06:49:54;;;;;;;;;;;12.50;49.60;;;;;;5091497;28;20291;-69
2022/03/05 06:52:21;;;;;;;;;;;12.60;49.70;;;;;;5081890;28;19947;-69
2022/03/05 06:54:49;;;;;;;;;;;12.60;49.70;;;;;;5090090;28;19931;-68
2022/03/05 06:57:15;;;;;;;;;;;13.30;50.00;;;;;;5072296;28;19925;-69
2022/03/05 06:59:42;;;;;;;;;;;12.50;49.60;;;;;;5090117;28;20369;-69
2022/03/05 07:02:08;;;;;;;;;;;12.70;49.70;;;;;;5092789;28;20373;-69
2022/03/05 07:04:35;;;;;;;;;;;13.50;50.10;;;;;;5092450;28;20385;-69
2022/03/05 07:07:01;;;;;;;;;;;12.60;49.60;;;;;;5091000;28;20528;-69
2022/03/05 07:09:28;;;;;;;;;;;12.90;49.80;;;;;;5078580;28;19928;-69
2022/03/05 07:11:56;;;;;;;;;;;12.60;49.60;;;;;;5092049;28;19925;-69
2022/03/05 07:14:22;;;;;;;;;;;13.20;50.00;;;;;;5072625;28;19935;-69
2022/03/05 07:16:49;;;;;;;;;;;12.60;49.60;;;;;;5070938;28;19931;-69
2022/03/05 07:19:16;;;;;;;;;;;13.30;50.00;;;;;;5072786;28;19924;-69
2022/03/05 07:21:42;;;;;;;;;;;13.20;49.90;;;;;;5091020;28;19924;-68
2022/03/05 07:24:09;;;;;;;;;;;13.50;50.10;;;;;;5083205;28;19924;-69
2022/03/05 07:26:36;;;;;;;;;;;12.60;49.50;;;;;;5091868;28;19932;-69
2022/03/05 07:29:04;;;;;;;;;;;12.70;49.60;;;;;;5077189;28;19993;-68
2022/03/05 07:31:30;;;;;;;;;;;12.70;49.50;;;;;;5092448;28;19924;-69
2022/03/05 07:33:57;;;;;;;;;;;13.30;49.90;;;;;;5091728;28;19950;-68
2022/03/05 07:36:23;;;;;;;;;;;12.70;49.40;;;;;;5091651;28;19928;-69
2022/03/05 07:38:51;;;;;;;;;;;12.70;49.40;;;;;;5075218;28;19931;-69
2022/03/05 07:41:17;;;;;;;;;;;12.70;49.40;;;;;;5072029;28;20343;-69
2022/03/05 07:43:44;;;;;;;;;;;13.30;49.70;;;;;;5072560;28;19925;-69
2022/03/05 07:46:12;;;;;;;;;;;12.80;49.40;;;;;;5071007;28;19931;-68
2022/03/05 07:48:38;;;;;;;;;;;12.80;49.30;;;;;;5086858;28;20450;-69
2022/03/05 07:51:05;;;;;;;;;;;13.20;49.50;;;;;;5090714;28;19947;-68
2022/03/05 07:53:32;;;;;;;;;;;12.90;49.30;;;;;;5072171;28;19924;-70
2022/03/05 07:55:59;;;;;;;;;;;12.90;49.30;;;;;;5072922;28;19924;-68
2022/03/05 07:58:26;;;;;;;;;;;12.90;49.30;;;;;;5072052;28;19931;-69
2022/03/05 08:00:52;;;;;;;;;;;12.90;49.30;;;;;;5077355;28;19930;-69
2022/03/05 08:03:20;;;;;;;;;;;12.90;49.30;;;;;;5088974;28;20411;-69
2022/03/05 08:05:47;;;;;;;;;;;13.00;49.40;;;;;;5077452;28;19932;-69
2022/03/05 08:08:13;;;;;;;;;;;13.00;49.40;;;;;;5079956;28;20137;-68
2022/03/05 08:10:40;;;;;;;;;;;13.70;49.70;;;;;;5066189;28;19924;-70
2022/03/05 08:13:06;;;;;;;;;;;13.00;49.30;;;;;;5084607;28;19924;-70
2022/03/05 08:15:33;;;;;;;;;;;13.10;49.30;;;;;;5080963;28;19936;-70
2022/03/05 08:18:00;;;;;;;;;;;13.10;49.30;;;;;;5077779;28;19925;-69
2022/03/05 08:20:28;;;;;;;;;;;13.40;49.40;;;;;;5080568;28;19926;-69
2022/03/05 08:22:55;;;;;;;;;;;13.50;50.10;;;;;;5088203;28;19925;-70
2022/03/05 08:25:21;;;;;;;;;;;13.10;49.30;;;;;;5080388;28;20108;-69
2022/03/05 08:27:48;;;;;;;;;;;13.20;49.40;;;;;;5080953;28;19930;-69
2022/03/05 08:30:15;;;;;;;;;;;13.20;49.30;;;;;;5083682;28;19924;-69
2022/03/05 08:32:41;;;;;;;;;;;13.20;49.30;;;;;;5070909;28;19947;-70
2022/03/05 08:35:08;;;;;;;;;;;13.20;49.30;;;;;;5077145;28;19924;-69
2022/03/05 08:37:36;;;;;;;;;;;13.20;49.30;;;;;;5073963;28;20354;-69
2022/03/05 08:40:03;;;;;;;;;;;13.30;49.30;;;;;;5090360;28;19924;-70
2022/03/05 08:42:30;;;;;;;;;;;13.30;49.70;;;;;;5090693;28;19930;-70
2022/03/05 08:44:56;;;;;;;;;;;13.30;49.60;;;;;;5056395;28;20300;-69
2022/03/05 08:47:23;;;;;;;;;;;13.40;49.40;;;;;;5078581;28;20006;-69
2022/03/05 08:49:49;;;;;;;;;;;13.50;49.40;;;;;;5087532;28;19924;-69
2022/03/05 08:52:16;;;;;;;;;;;13.50;49.20;;;;;;5080707;28;19930;-70
2022/03/05 08:54:44;;;;;;;;;;;13.60;49.10;;;;;;5085213;28;19924;-70
2022/03/05 08:57:11;;;;;;;;;;;13.60;48.90;;;;;;5083892;28;19924;-69
2022/03/05 08:59:37;;;;;;;;;;;13.60;48.80;;;;;;5085329;28;20293;-70
2022/03/05 09:02:04;;;;;;;;;;;13.70;48.80;;;;;;5073979;28;19934;-71
2022/03/05 09:04:30;;;;;;;;;;;13.70;48.70;;;;;;5074209;28;19971;-71
2022/03/05 09:06:57;;;;;;;;;;;13.80;48.70;;;;;;5073984;28;19925;-70
2022/03/05 09:09:23;;;;;;;;;;;13.80;48.60;;;;;;5074137;28;20389;-67
2022/03/05 09:11:51;;;;;;;;;;;13.80;48.60;;;;;;5073949;28;20377;-67
2022/03/05 09:14:18;;;;;;;;;;;13.90;48.60;;;;;;5083533;28;19947;-67
2022/03/05 09:16:44;;;;;;;;;;;13.90;48.50;;;;;;5084595;28;19930;-67
2022/03/05 09:19:11;;;;;;;;;;;13.90;48.50;;;;;;5092304;28;19935;-70
2022/03/05 09:21:38;;;;;;;;;;;13.90;48.50;;;;;;5083869;28;19924;-68
2022/03/05 09:24:05;;;;;;;;;;;13.90;48.40;;;;;;5076090;28;19963;-68
2022/03/05 09:26:32;;;;;;;;;;;13.90;48.40;;;;;;5079061;28;19930;-68
2022/03/05 09:29:00;;;;;;;;;;;14.00;48.40;;;;;;5083161;28;19936;-69
2022/03/05 09:31:26;;;;;;;;;;;14.00;48.40;;;;;;5074310;28;19947;-68
2022/03/05 09:33:53;;;;;;;;;;;14.00;48.40;;;;;;5074252;28;19946;-69
2022/03/05 09:36:19;;;;;;;;;;;14.00;48.40;;;;;;5073993;28;19924;-71
2022/03/05 09:38:48;;;;;;;;;;;14.00;48.30;;;;;;5074390;28;19925;-68
2022/03/05 09:41:14;;;;;;;;;;;14.00;48.30;;;;;;5074329;28;19932;-71
2022/03/05 09:43:43;;;;;;;;;;;14.00;48.30;;;;;;5089720;28;20400;-68
2022/03/05 09:46:11;;;;;;;;;;;14.10;48.30;;;;;;5093094;28;20385;-69
2022/03/05 09:48:38;;;;;;;;;;;14.10;48.20;;;;;;5093243;28;20010;-68
2022/03/05 09:51:04;;;;;;;;;;;14.10;48.20;;;;;;5094451;28;19934;-69
2022/03/05 09:53:31;;;;;;;;;;;14.10;48.20;;;;;;5093360;28;19930;-68
2022/03/05 09:55:57;;;;;;;;;;;14.10;48.10;;;;;;5088980;28;20395;-71
2022/03/05 09:58:24;;;;;;;;;;;14.20;48.10;;;;;;5074125;28;20304;-70
2022/03/05 10:00:51;;;;;;;;;;;14.20;48.10;;;;;;5073544;28;19951;-70
2022/03/05 10:03:19;;;;;;;;;;;14.20;48.70;;;;;;5073774;28;19964;-70
2022/03/05 10:05:45;;;;;;;;;;;14.20;48.00;;;;;;5073616;28;19931;-70
2022/03/05 10:08:13;;;;;;;;;;;14.30;48.00;;;;;;5073423;28;19930;-70
2022/03/05 10:10:40;;;;;;;;;;;14.30;48.00;;;;;;5082665;28;19924;-71
2022/03/05 10:13:15;;;;;;;;;;;14.30;48.00;;;;;;5093743;28;19924;-70
2022/03/05 10:15:42;;;;;;;;;;;14.30;48.00;;;;;;5093631;28;19925;-71
2022/03/05 10:18:08;;;;;;;;;;;14.30;48.00;;;;;;5093919;28;19931;-69
2022/03/05 10:20:42;;;;;;;;;;;14.40;48.10;;;;;;5093358;28;20023;-70
2022/03/05 10:23:09;;;;;;;;;;;14.40;48.10;;;;;;5093676;28;19924;-70
2022/03/05 10:25:37;;;;;;;;;;;14.40;48.00;;;;;;5076870;28;19924;-70
2022/03/05 10:28:07;;;;;;;;;;;14.40;48.00;;;;;;5073123;28;19928;-71
2022/03/05 10:30:34;;;;;;;;;;;14.40;47.90;;;;;;5073498;28;19975;-70
2022/03/05 10:33:01;;;;;;;;;;;14.40;47.90;;;;;;5073213;28;20028;-70
2022/03/05 10:35:27;;;;;;;;;;;14.40;48.00;;;;;;5071511;28;19924;-70
2022/03/05 10:37:55;;;;;;;;;;;14.40;48.00;;;;;;5073712;28;19928;-71
2022/03/05 10:40:25;;;;;;;;;;;14.50;48.00;;;;;;5092348;28;19930;-70
2022/03/05 10:42:52;;;;;;;;;;;14.50;48.00;;;;;;5091723;28;19924;-71
2022/03/05 10:45:19;;;;;;;;;;;14.50;48.00;;;;;;5093320;28;19925;-70
2022/03/05 10:47:46;;;;;;;;;;;14.50;48.00;;;;;;5091625;28;19924;-70
2022/03/05 10:50:20;;;;;;;;;;;14.50;48.00;;;;;;5091929;28;20247;-67
2022/03/05 10:52:47;;;;;;;;;;;14.50;48.00;;;;;;5087732;28;19932;-70
2022/03/05 10:55:16;;;;;;;;;;;14.50;48.10;;;;;;5083346;28;19934;-69
2022/03/05 10:57:55;;;;;;;;;;;14.60;48.10;;;;;;5083771;28;20369;-68
2022/03/05 11:00:22;;;;;;;;;;;14.60;47.90;;;;;;5078370;28;19931;-70
2022/03/05 11:02:49;;;;;;;;;;;14.60;47.90;;;;;;5074133;28;20293;-69
2022/03/05 11:05:16;;;;;;;;;;;14.70;47.90;;;;;;5081499;28;19924;-69
2022/03/05 11:07:42;;;;;;;;;;;14.70;47.90;;;;;;5082603;28;19924;-69
2022/03/05 11:10:09;;;;;;;;;;;14.70;47.90;;;;;;5080522;28;19924;-69
2022/03/05 11:12:37;;;;;;;;;;;14.70;47.90;;;;;;5080137;28;20006;-70
2022/03/05 11:15:04;;;;;;;;;;;14.70;47.90;;;;;;5077335;28;20390;-68
2022/03/05 11:17:31;;;;;;;;;;;14.70;47.90;;;;;;5079436;28;19932;-71
2022/03/05 11:19:57;;;;;;;;;;;14.80;48.00;;;;;;5082809;28;20385;-69
2022/03/05 11:22:24;;;;;;;;;;;14.80;48.00;;;;;;5080517;28;19989;-69
2022/03/05 11:24:50;;;;;;;;;;;14.80;48.00;;;;;;5083253;28;19925;-70
2022/03/05 11:27:17;;;;;;;;;;;14.80;48.00;;;;;;5079946;28;20014;-69
2022/03/05 11:29:55;;;;;;;;;;;14.90;48.00;;;;;;5081035;28;19929;-68
2022/03/05 11:32:21;;;;;;;;;;;14.90;47.90;;;;;;5097070;28;20023;-69
2022/03/05 11:34:48;;;;;;;;;;;14.90;47.90;;;;;;5081710;28;19954;-68
2022/03/05 11:37:15;;;;;;;;;;;14.90;47.90;;;;;;5082785;28;20273;-69
2022/03/05 11:39:42;;;;;;;;;;;15.00;48.00;;;;;;5080433;28;19967;-69
2022/03/05 11:42:09;;;;;;;;;;;15.00;48.00;;;;;;5081588;28;19924;-69
2022/03/05 11:44:39;;;;;;;;;;;15.00;48.00;;;;;;5082768;28;19924;-69
2022/03/05 11:47:24;;;;;;;;;;;15.00;47.90;;;;;;5072995;28;19948;-69
2022/03/05 11:50:11;;;;;;;;;;;15.10;47.90;;;;;;5072083;28;19924;-69
2022/03/05 11:52:56;;;;;;;;;;;15.10;47.80;;;;;;5072396;28;20041;-69
2022/03/05 11:55:24;;;;;;;;;;;15.00;47.70;;;;;;5074221;28;20286;-74
2022/03/05 11:58:05;;;;;;;;;;;15.00;47.70;;;;;;5075973;28;19975;-69
2022/03/05 12:00:32;;;;;;;;;;;15.10;47.80;;;;;;5074434;28;20011;-69
2022/03/05 12:03:00;;;;;;;;;;;15.10;47.80;;;;;;5080476;28;19930;-69
2022/03/05 12:05:50;;;;;;;;;;;15.10;47.80;;;;;;5082523;28;19924;-69
2022/03/05 12:08:32;;;;;;;;;;;15.10;47.80;;;;;;5078146;28;20399;-69
2022/03/05 12:11:08;;;;;;;;;;;15.00;47.80;;;;;;5088589;28;20282;-69
2022/03/05 12:13:35;;;;;;;;;;;15.00;47.80;;;;;;5090906;28;19928;-69
2022/03/05 12:16:02;;;;;;;;;;;15.00;47.90;;;;;;5091537;28;20308;-69
2022/03/05 12:18:30;;;;;;;;;;;15.00;48.00;;;;;;5091870;28;19954;-69
2022/03/05 12:20:57;;;;;;;;;;;15.00;48.00;;;;;;5091892;28;19977;-69
2022/03/05 12:23:24;;;;;;;;;;;15.00;48.00;;;;;;5074655;28;19924;-71
2022/03/05 12:25:50;;;;;;;;;;;15.00;48.00;;;;;;5074420;28;19924;-69
2022/03/05 12:28:18;;;;;;;;;;;14.90;47.80;;;;;;5075445;28;19925;-69
2022/03/05 12:30:45;;;;;;;;;;;14.90;47.90;;;;;;5074291;28;19977;-69
2022/03/05 12:33:11;;;;;;;;;;;14.90;47.90;;;;;;5075549;28;19924;-69
2022/03/05 12:35:40;;;;;;;;;;;14.90;47.90;;;;;;5074382;28;19925;-72
2022/03/05 12:38:06;;;;;;;;;;;14.90;47.90;;;;;;5076601;28;19924;-71
2022/03/05 12:40:33;;;;;;;;;;;14.80;47.90;;;;;;5081486;28;19924;-69
2022/03/05 12:43:00;;;;;;;;;;;14.80;47.90;;;;;;5093209;28;19931;-69
2022/03/05 12:45:27;;;;;;;;;;;14.80;47.90;;;;;;5094005;28;19934;-70
2022/03/05 12:47:54;;;;;;;;;;;14.80;47.90;;;;;;5095729;28;19928;-69
2022/03/05 12:50:21;;;;;;;;;;;14.70;47.90;;;;;;5095963;28;20299;-71
2022/03/05 12:52:59;;;;;;;;;;;14.70;48.00;;;;;;5086508;28;19931;-69
2022/03/05 12:55:29;;;;;;;;;;;14.70;48.10;;;;;;5073814;28;20402;-69
2022/03/05 12:58:00;;;;;;;;;;;14.70;48.40;;;;;;5074183;28;20003;-66
2022/03/05 13:00:27;;;;;;;;;;;14.70;48.60;;;;;;5073956;28;19931;-69
2022/03/05 13:02:54;;;;;;;;;;;14.60;48.70;;;;;;5082944;28;20293;-70
2022/03/05 13:05:21;;;;;;;;;;;14.60;48.80;;;;;;5083868;28;19924;-69
2022/03/05 13:07:47;;;;;;;;;;;14.60;48.90;;;;;;5080226;28;19925;-70
2022/03/05 13:10:17;;;;;;;;;;;14.60;49.00;;;;;;5081768;28;19925;-70
2022/03/05 13:12:43;;;;;;;;;;;14.60;48.90;;;;;;5074745;28;19924;-69
2022/03/05 13:15:10;;;;;;;;;;;14.60;48.90;;;;;;5073604;28;20016;-68
2022/03/05 13:17:37;;;;;;;;;;;14.60;49.00;;;;;;5071876;28;20300;-68
2022/03/05 13:20:04;;;;;;;;;;;14.60;49.00;;;;;;5074364;28;20007;-68
2022/03/05 13:22:31;;;;;;;;;;;14.60;49.10;;;;;;5074654;28;19925;-69
2022/03/05 13:24:57;;;;;;;;;;;14.50;48.90;;;;;;5073220;28;19924;-71
2022/03/05 13:27:26;;;;;;;;;;;14.50;49.00;;;;;;5074381;28;19925;-69
2022/03/05 13:29:52;;;;;;;;;;;14.50;49.00;;;;;;5072414;28;19925;-70
2022/03/05 13:32:19;;;;;;;;;;;14.50;49.10;;;;;;5076113;28;19925;-70
2022/03/05 13:34:45;;;;;;;;;;;14.40;49.00;;;;;;5078135;28;19930;-70
2022/03/05 13:37:12;;;;;;;;;;;14.40;49.10;;;;;;5073826;28;19931;-70
2022/03/05 13:39:38;;;;;;;;;;;14.40;49.10;;;;;;5075611;28;19928;-70
2022/03/05 13:42:10;;;;;;;;;;;14.40;49.00;;;;;;5074528;28;19925;-69
2022/03/05 13:44:38;;;;;;;;;;;14.30;48.90;;;;;;5073419;28;19946;-69
2022/03/05 13:47:06;;;;;;;;;;;14.30;49.00;;;;;;5074203;28;19947;-69
2022/03/05 13:49:33;;;;;;;;;;;14.30;49.00;;;;;;5073946;28;20237;-70
2022/03/05 13:52:00;;;;;;;;;;;14.30;49.10;;;;;;5074209;28;20416;-70
2022/03/05 13:54:37;;;;;;;;;;;14.30;49.20;;;;;;5073707;28;19928;-69
2022/03/05 13:57:04;;;;;;;;;;;14.30;49.10;;;;;;5081778;28;19943;-69
2022/03/05 13:59:38;;;;;;;;;;;14.30;49.20;;;;;;5087928;28;20401;-69
2022/03/05 14:02:05;;;;;;;;;;;14.30;49.10;;;;;;5092891;28;19924;-70
2022/03/05 14:04:32;;;;;;;;;;;14.20;49.10;;;;;;5094020;28;19924;-69
2022/03/05 14:06:58;;;;;;;;;;;14.20;49.20;;;;;;5082961;28;19931;-69
2022/03/05 14:09:26;;;;;;;;;;;14.20;49.20;;;;;;5073932;28;19931;-68
2022/03/05 14:12:09;;;;;;;;;;;14.20;49.30;;;;;;5073628;28;19931;-69
2022/03/05 14:14:41;;;;;;;;;;;14.20;49.30;;;;;;5074665;28;20011;-68
2022/03/05 14:17:07;;;;;;;;;;;14.20;49.30;;;;;;5073314;28;19928;-68
2022/03/05 14:19:34;;;;;;;;;;;14.10;49.30;;;;;;5072899;28;19925;-68
2022/03/05 14:22:04;;;;;;;;;;;14.10;49.30;;;;;;5073530;28;19931;-68